Terminal Aerodrome Forecast
Issued by NWS Charleston, WV

Home | Current Version | Previous Version | Text Only | Print | Product List | Glossary On
Versions: 1 2 3 4 5 6 7 8 9 10 11 12 13 14 15 16 17 18 19 20 21 22 23 24 25 26 27 28 29
467
FTUS41 KRLX 080920 AAA
TAFBKW
TAF AMD
KBKW 080920Z 0809/0906 26005KT P6SM BKN110
     FM081100 31007KT P6SM BKN090
     FM081600 29011KT P6SM SCT060
     FM081900 29013G20KT P6SM FEW250
     FM082200 30013G22KT P6SM SCT050
     FM090000 30012G22KT P6SM BKN040=

USA.gov is the U.S. government's official web portal to all federal, state and local government web resources and services.